createdAt,value
2018-05-09T00:01:15.719Z,96.40
2018-05-09T00:03:43.510Z,96.60
2018-05-09T00:06:11.733Z,96.80
2018-05-09T00:08:39.543Z,96.90
2018-05-09T00:11:07.376Z,97.30
2018-05-09T00:13:35.232Z,97.30
2018-05-09T00:16:03.888Z,97.70
2018-05-09T00:21:14.638Z,97.80
2018-05-09T00:23:42.480Z,97.80
2018-05-09T00:26:26.312Z,98.00
2018-05-09T00:28:54.919Z,97.70
2018-05-09T00:31:22.772Z,97.70
2018-05-09T00:33:51.372Z,97.60
2018-05-09T00:36:19.975Z,97.60
2018-05-09T00:38:47.878Z,97.60
2018-05-09T00:41:15.763Z,97.80
2018-05-09T00:43:43.593Z,98.30
2018-05-09T00:52:03.087Z,99.20
2018-05-09T00:54:32.767Z,99.10
2018-05-09T00:57:01.459Z,99.20
2018-05-09T00:59:30.087Z,98.80
2018-05-09T01:01:57.901Z,98.70
2018-05-09T01:04:25.831Z,98.80
2018-05-09T01:06:56.150Z,99.20
2018-05-09T01:09:39.135Z,99.60
2018-05-09T01:12:07.104Z,98.90
2018-05-09T01:14:34.997Z,98.80
2018-05-09T01:17:02.820Z,98.90
2018-05-09T01:19:31.396Z,99.10
2018-05-09T01:22:00.000Z,99.10
2018-05-09T01:24:28.606Z,99.20
2018-05-09T01:26:56.457Z,99.30
2018-05-09T01:29:25.040Z,99.60
2018-05-09T01:31:53.627Z,99.50
2018-05-09T01:34:22.311Z,99.90
2018-05-09T01:36:50.132Z,99.90
2018-05-09T01:39:17.986Z,99.80
2018-05-09T01:41:46.625Z,99.60
2018-05-09T01:44:14.463Z,99.60
2018-05-09T01:46:43.055Z,99.80
2018-05-09T01:49:11.772Z,99.70
2018-05-09T01:51:39.639Z,99.70
2018-05-09T01:54:07.461Z,99.70
2018-05-09T01:56:35.289Z,99.90
2018-05-09T01:59:03.131Z,99.90
2018-05-09T02:01:30.957Z,99.90
2018-05-09T02:03:58.823Z,99.90
2018-05-09T02:06:26.703Z,99.90
2018-05-09T02:08:54.659Z,99.90
2018-05-09T02:11:22.539Z,99.90
2018-05-09T02:13:50.415Z,99.90
2018-05-09T02:16:19.069Z,99.90
2018-05-09T02:22:07.684Z,99.90
2018-05-09T02:24:35.524Z,99.90
2018-05-09T02:27:04.130Z,99.90
2018-05-09T02:29:32.731Z,99.90
2018-05-09T02:32:00.673Z,99.90
2018-05-09T02:37:11.960Z,99.90
2018-05-09T02:39:39.767Z,99.90
2018-05-09T02:42:07.607Z,99.90
2018-05-09T02:44:36.208Z,99.90
2018-05-09T02:47:04.045Z,99.90
2018-05-09T02:49:31.898Z,99.90
2018-05-09T02:51:59.716Z,99.90
2018-05-09T02:54:27.648Z,99.90
2018-05-09T02:56:55.485Z,99.90
2018-05-09T02:59:23.491Z,99.90
2018-05-09T03:01:52.076Z,99.90
2018-05-09T03:04:20.672Z,99.90
2018-05-09T03:06:50.437Z,99.90
2018-05-09T03:09:20.789Z,99.90
2018-05-09T03:11:48.603Z,99.90
2018-05-09T03:14:16.443Z,99.90
2018-05-09T03:16:44.312Z,99.90
2018-05-09T03:19:12.144Z,99.90
2018-05-09T03:21:41.155Z,99.90
2018-05-09T03:24:08.961Z,99.90
2018-05-09T03:26:36.783Z,99.90
2018-05-09T03:29:05.387Z,99.90
2018-05-09T03:31:33.356Z,99.90
2018-05-09T03:34:01.192Z,99.90
2018-05-09T03:36:28.995Z,99.90
2018-05-09T03:38:56.815Z,99.90
2018-05-09T03:41:24.641Z,99.90
2018-05-09T03:43:52.631Z,99.90
2018-05-09T03:46:20.480Z,99.90
2018-05-09T03:48:48.319Z,99.90
2018-05-09T03:51:16.229Z,99.90
2018-05-09T03:53:44.058Z,99.90
2018-05-09T03:56:11.899Z,99.90
2018-05-09T03:58:40.498Z,99.90
2018-05-09T04:01:08.403Z,99.90
2018-05-09T04:03:42.186Z,99.90
2018-05-09T04:06:15.832Z,99.90
2018-05-09T04:08:56.041Z,99.90
2018-05-09T04:11:24.034Z,99.90
2018-05-09T04:13:51.871Z,99.90
2018-05-09T04:16:19.791Z,99.90
2018-05-09T04:18:47.628Z,99.90
2018-05-09T04:21:15.476Z,99.90
2018-05-09T04:23:43.447Z,99.90
2018-05-09T04:26:11.568Z,99.90
2018-05-09T04:28:39.401Z,99.90
2018-05-09T04:31:07.351Z,99.90
2018-05-09T04:33:35.240Z,99.90
2018-05-09T04:36:03.077Z,99.90
2018-05-09T04:42:02.746Z,99.90
2018-05-09T04:44:31.264Z,99.90
2018-05-09T04:46:59.094Z,99.90
2018-05-09T04:49:26.927Z,99.90
2018-05-09T04:51:55.560Z,99.90
2018-05-09T04:54:23.363Z,99.90
2018-05-09T04:56:51.375Z,99.90
2018-05-09T04:59:19.291Z,99.90
2018-05-09T05:02:04.017Z,99.90
2018-05-09T05:04:32.762Z,99.90
2018-05-09T05:07:00.740Z,99.90
2018-05-09T05:09:28.511Z,99.90
2018-05-09T05:11:56.352Z,99.90
2018-05-09T05:14:24.203Z,99.80
2018-05-09T05:16:52.091Z,99.60
2018-05-09T05:19:19.998Z,99.00
2018-05-09T05:21:48.693Z,98.90
2018-05-09T05:24:17.287Z,98.90
2018-05-09T05:26:45.321Z,98.90
2018-05-09T05:29:13.196Z,98.20
2018-05-09T05:31:41.031Z,98.80
2018-05-09T05:34:08.858Z,97.80
2018-05-09T05:36:37.454Z,97.50
2018-05-09T05:39:05.306Z,97.50
2018-05-09T05:41:33.915Z,97.80
2018-05-09T06:00:38.978Z,97.60
2018-05-09T06:03:06.811Z,97.70
2018-05-09T06:05:35.385Z,98.60
2018-05-09T06:08:04.082Z,98.40
2018-05-09T06:10:32.684Z,98.40
2018-05-09T06:13:16.383Z,98.80
2018-05-09T06:15:45.288Z,98.20
2018-05-09T06:18:13.332Z,98.20
2018-05-09T06:20:41.339Z,98.20
2018-05-09T06:23:09.273Z,97.90
2018-05-09T06:25:37.429Z,97.50
2018-05-09T06:28:05.327Z,97.60
2018-05-09T06:30:33.183Z,97.70
2018-05-09T06:33:01.022Z,97.70
2018-05-09T06:35:29.606Z,96.90
2018-05-09T06:37:58.253Z,96.30
2018-05-09T06:40:26.084Z,96.20
2018-05-09T06:42:53.950Z,96.20
2018-05-09T06:45:21.785Z,96.00
2018-05-09T06:47:50.404Z,95.80
2018-05-09T06:50:18.318Z,95.90
2018-05-09T06:52:46.932Z,95.30
2018-05-09T06:55:15.548Z,95.00
2018-05-09T06:57:43.361Z,95.00
2018-05-09T07:00:11.061Z,94.20
2018-05-09T07:02:39.151Z,91.90
2018-05-09T07:05:07.443Z,90.30
2018-05-09T07:17:09.051Z,75.20
2018-05-09T07:19:37.239Z,75.10
2018-05-09T07:22:05.561Z,71.00
2018-05-09T07:24:34.038Z,72.60
2018-05-09T07:27:01.985Z,69.30
2018-05-09T07:29:29.874Z,66.30
2018-05-09T07:45:41.266Z,57.30
2018-05-09T07:48:09.105Z,57.40
2018-05-09T07:50:37.706Z,57.50
2018-05-09T07:53:06.299Z,59.20
2018-05-09T07:55:34.160Z,59.20
2018-05-09T07:58:02.726Z,58.00
2018-05-09T08:00:31.322Z,57.10
2018-05-09T08:02:59.921Z,57.20
2018-05-09T08:05:27.744Z,57.10
2018-05-09T08:07:55.586Z,56.30
2018-05-09T08:10:23.405Z,56.10
2018-05-09T08:12:51.259Z,59.50
2018-05-09T08:18:01.847Z,58.20
2018-05-09T08:20:29.762Z,58.10
2018-05-09T08:22:57.572Z,58.20
2018-05-09T08:25:25.381Z,57.10
2018-05-09T08:27:53.271Z,58.10
2018-05-09T08:30:21.108Z,59.80
2018-05-09T08:32:48.903Z,58.10
2018-05-09T08:35:16.724Z,60.00
2018-05-09T08:37:44.551Z,60.10
2018-05-09T08:40:12.368Z,57.70
2018-05-09T08:42:40.268Z,54.10
2018-05-09T08:45:08.119Z,54.20
2018-05-09T08:47:51.108Z,54.60
2018-05-09T08:50:18.952Z,53.40
2018-05-09T08:52:47.572Z,54.80
2018-05-09T08:55:15.524Z,54.80
2018-05-09T08:57:43.346Z,57.70
2018-05-09T09:00:11.171Z,58.60
2018-05-09T09:02:39.029Z,57.10
2018-05-09T09:05:07.618Z,59.80
2018-05-09T09:17:05.756Z,63.10
2018-05-09T09:19:34.863Z,63.10
2018-05-09T09:22:02.685Z,63.40
2018-05-09T09:27:16.265Z,62.20
2018-05-09T09:29:44.095Z,62.20
2018-05-09T09:32:11.924Z,62.50
2018-05-09T09:34:40.514Z,64.50
2018-05-09T09:37:08.357Z,64.50
2018-05-09T09:39:36.173Z,62.70
2018-05-09T09:42:03.995Z,61.20
2018-05-09T09:44:31.935Z,61.00
2018-05-09T09:47:00.525Z,57.30
2018-05-09T09:49:29.110Z,59.40
2018-05-09T09:51:56.952Z,59.30
2018-05-09T09:54:24.891Z,59.70
2018-05-09T09:56:52.741Z,61.10
2018-05-09T09:59:20.600Z,58.90
2018-05-09T10:01:48.425Z,60.30
2018-05-09T10:04:17.015Z,59.60
2018-05-09T10:06:45.718Z,60.20
2018-05-09T10:09:13.617Z,60.10
2018-05-09T10:11:41.457Z,57.80
2018-05-09T10:14:09.287Z,59.00
2018-05-09T10:16:37.109Z,57.50
2018-05-09T10:19:04.935Z,57.40
2018-05-09T10:21:34.163Z,57.90
2018-05-09T10:24:02.013Z,57.90
2018-05-09T10:26:30.066Z,57.20
2018-05-09T10:28:57.817Z,58.20
2018-05-09T10:31:25.705Z,59.80
2018-05-09T10:33:54.303Z,58.90
2018-05-09T10:36:23.355Z,58.90
2018-05-09T10:38:51.186Z,60.20
2018-05-09T10:41:19.063Z,59.20
2018-05-09T10:43:46.891Z,59.80
2018-05-09T10:46:14.739Z,58.80
2018-05-09T10:48:43.359Z,58.50
2018-05-09T10:51:11.190Z,58.50
2018-05-09T10:53:39.092Z,58.80
2018-05-09T10:56:07.029Z,60.20
2018-05-09T10:58:35.635Z,60.00
2018-05-09T11:01:03.493Z,59.90
2018-05-09T11:03:47.232Z,57.50
2018-05-09T11:06:15.087Z,57.50
2018-05-09T11:08:43.085Z,57.50
2018-05-09T11:11:11.071Z,58.40
2018-05-09T11:16:55.320Z,57.90
2018-05-09T11:28:45.592Z,60.70
2018-05-09T11:31:13.404Z,60.40
2018-05-09T11:33:41.250Z,60.80
2018-05-09T11:36:09.900Z,60.60
2018-05-09T11:38:37.789Z,60.50
2018-05-09T11:41:05.594Z,60.30
2018-05-09T11:43:33.605Z,59.90
2018-05-09T11:46:01.468Z,60.60
2018-05-09T11:48:29.283Z,60.60
2018-05-09T11:50:57.216Z,61.30
2018-05-09T11:53:25.816Z,60.10
2018-05-09T11:58:53.473Z,61.60
2018-05-09T12:01:22.206Z,58.10
2018-05-09T12:03:50.037Z,58.10
2018-05-09T12:06:18.658Z,60.00
2018-05-09T12:11:31.429Z,59.90
2018-05-09T12:13:59.277Z,59.20
2018-05-09T12:16:27.144Z,59.60
2018-05-09T12:18:56.201Z,59.30
2018-05-09T12:21:24.820Z,60.90
2018-05-09T12:23:52.656Z,60.70
2018-05-09T12:29:07.378Z,62.60
2018-05-09T12:31:35.373Z,62.60
2018-05-09T12:34:03.212Z,60.60
2018-05-09T12:36:31.105Z,63.60
2018-05-09T12:38:58.873Z,61.50
2018-05-09T12:41:27.502Z,63.70
2018-05-09T12:43:55.324Z,63.60
2018-05-09T12:46:23.136Z,67.40
2018-05-09T12:48:51.756Z,65.60
2018-05-09T12:51:19.602Z,65.60
2018-05-09T12:53:47.512Z,63.40
2018-05-09T12:56:15.521Z,64.00
2018-05-09T12:58:43.367Z,64.90
2018-05-09T13:01:12.020Z,63.00
2018-05-09T13:03:39.871Z,63.00
2018-05-09T13:06:07.760Z,61.40
2018-05-09T13:11:17.937Z,59.90
2018-05-09T13:13:45.759Z,59.60
2018-05-09T13:16:13.576Z,58.70
2018-05-09T13:18:42.199Z,57.10
2018-05-09T13:21:10.020Z,57.10
2018-05-09T13:23:37.833Z,58.10
2018-05-09T13:26:05.654Z,57.10
2018-05-09T13:28:34.316Z,54.40
2018-05-09T13:31:04.766Z,54.40
2018-05-09T13:33:32.579Z,54.60
2018-05-09T13:36:00.405Z,55.90
2018-05-09T13:38:28.410Z,52.10
2018-05-09T13:40:56.353Z,49.20
2018-05-09T13:43:25.110Z,47.60
2018-05-09T13:45:52.932Z,47.40
2018-05-09T13:48:21.511Z,46.40
2018-05-09T13:50:49.337Z,46.50
2018-05-09T13:53:17.226Z,47.30
2018-05-09T13:55:45.842Z,44.60
2018-05-09T13:58:13.669Z,44.60
2018-05-09T14:00:41.549Z,46.40
2018-05-09T14:03:10.220Z,44.30
2018-05-09T14:05:38.811Z,44.00
2018-05-09T14:08:06.616Z,44.00
2018-05-09T14:10:34.450Z,45.20
2018-05-09T14:13:02.281Z,47.10
2018-05-09T14:18:12.314Z,49.10
2018-05-09T14:20:40.144Z,49.50
2018-05-09T14:29:02.710Z,59.30
2018-05-09T14:31:30.668Z,58.10
2018-05-09T14:33:58.488Z,55.70
2018-05-09T14:36:26.331Z,53.00
2018-05-09T14:38:54.163Z,51.70
2018-05-09T14:41:22.073Z,50.20
2018-05-09T14:43:50.694Z,47.40
2018-05-09T14:46:18.511Z,47.40
2018-05-09T14:52:31.396Z,49.80
2018-05-09T14:54:59.209Z,49.80
2018-05-09T14:57:27.887Z,50.90
2018-05-09T14:59:55.705Z,50.90
2018-05-09T15:02:23.527Z,50.30
2018-05-09T15:04:51.416Z,52.20
2018-05-09T15:07:20.012Z,53.50
2018-05-09T15:09:47.845Z,53.00
2018-05-09T15:12:16.443Z,52.80
2018-05-09T15:14:45.055Z,53.30
2018-05-09T15:17:12.911Z,53.30
2018-05-09T15:22:21.511Z,52.70
2018-05-09T15:24:49.327Z,51.60
2018-05-09T15:27:17.173Z,52.30
2018-05-09T15:29:45.008Z,53.90
2018-05-09T15:32:13.653Z,55.90
2018-05-09T15:34:42.619Z,55.30
2018-05-09T15:37:10.516Z,55.30
2018-05-09T15:39:38.474Z,54.90
2018-05-09T15:42:06.325Z,56.60
2018-05-09T15:44:34.170Z,59.00
2018-05-09T15:47:02.841Z,53.90
2018-05-09T15:49:30.683Z,53.80
2018-05-09T15:51:58.623Z,52.50
2018-05-09T15:54:26.473Z,52.90
2018-05-09T15:56:54.301Z,53.90
2018-05-09T15:59:22.197Z,52.40
2018-05-09T16:01:49.947Z,52.90
2018-05-09T16:04:17.751Z,53.80
2018-05-09T16:06:45.569Z,55.00
2018-05-09T16:09:13.387Z,56.00
2018-05-09T16:11:42.000Z,56.00
2018-05-09T16:14:09.896Z,56.00
2018-05-09T16:16:38.552Z,56.50
2018-05-09T16:19:06.487Z,56.50
2018-05-09T16:21:34.351Z,53.80
2018-05-09T16:26:43.727Z,53.10
2018-05-09T16:32:51.503Z,58.70
2018-05-09T16:35:20.091Z,59.20
2018-05-09T16:37:48.719Z,59.40
2018-05-09T16:40:16.789Z,59.40
2018-05-09T16:42:44.591Z,58.70
2018-05-09T16:45:12.432Z,59.00
2018-05-09T16:47:40.303Z,60.10
2018-05-09T16:50:08.127Z,61.80
2018-05-09T16:52:35.959Z,63.90
2018-05-09T16:55:04.600Z,67.30
2018-05-09T16:57:32.424Z,67.30
2018-05-09T17:00:01.098Z,69.70
2018-05-09T17:02:29.740Z,70.30
2018-05-09T17:04:57.617Z,70.30
2018-05-09T17:07:25.541Z,71.30
2018-05-09T17:09:53.369Z,72.10
2018-05-09T17:12:21.196Z,72.80
2018-05-09T17:14:49.011Z,72.90
2018-05-09T17:17:16.869Z,73.30
2018-05-09T17:19:44.695Z,74.20
2018-05-09T17:22:24.159Z,73.40
2018-05-09T17:24:52.035Z,74.00
2018-05-09T17:27:19.827Z,74.40
2018-05-09T17:29:48.488Z,76.20
2018-05-09T17:32:16.308Z,76.20
2018-05-09T17:34:45.852Z,75.90
2018-05-09T17:37:13.682Z,78.20
2018-05-09T17:39:41.615Z,77.30
2018-05-09T17:42:10.268Z,78.60
2018-05-09T17:44:38.148Z,78.60
2018-05-09T17:47:05.961Z,78.80
2018-05-09T17:49:33.771Z,78.90
2018-05-09T17:52:01.607Z,80.50
2018-05-09T17:54:29.491Z,81.20
2018-05-09T17:56:57.321Z,81.50
2018-05-09T17:59:25.248Z,81.00
2018-05-09T18:01:53.122Z,81.40
2018-05-09T18:04:21.019Z,81.70
2018-05-09T18:06:49.659Z,81.40
2018-05-09T18:09:17.499Z,81.40
2018-05-09T18:11:46.162Z,82.10
2018-05-09T18:14:14.026Z,82.00
2018-05-09T18:16:42.637Z,82.20
2018-05-09T18:19:10.476Z,82.20
2018-05-09T18:21:38.279Z,82.70
2018-05-09T18:24:07.118Z,82.80
2018-05-09T18:26:35.008Z,82.80
2018-05-09T18:29:03.620Z,82.80
2018-05-09T18:31:31.440Z,82.80
2018-05-09T18:33:59.368Z,83.10
2018-05-09T18:36:27.959Z,84.10
2018-05-09T18:38:55.795Z,84.00
2018-05-09T18:41:23.691Z,84.60
2018-05-09T18:43:51.617Z,85.50
2018-05-09T18:46:20.216Z,88.00
2018-05-09T18:48:48.051Z,88.00
2018-05-09T18:51:15.938Z,90.00
2018-05-09T18:56:26.650Z,91.70
2018-05-09T18:58:57.289Z,92.20
2018-05-09T19:01:25.122Z,92.30
2018-05-09T19:03:54.854Z,92.60
2018-05-09T19:06:22.700Z,92.60
2018-05-09T19:08:51.339Z,92.80
2018-05-09T19:11:19.390Z,92.70
2018-05-09T19:13:47.271Z,92.90
2018-05-09T19:16:15.130Z,93.10
2018-05-09T19:18:44.190Z,93.40
2018-05-09T19:21:11.931Z,93.40
2018-05-09T19:23:39.804Z,93.80
2018-05-09T19:26:08.474Z,94.10
2018-05-09T19:28:36.435Z,94.10
2018-05-09T19:31:04.319Z,94.40
2018-05-09T19:33:32.140Z,94.40
2018-05-09T19:35:59.941Z,94.40
2018-05-09T19:38:29.116Z,94.80
2018-05-09T19:40:56.963Z,95.00
2018-05-09T19:43:24.782Z,95.20
2018-05-09T19:45:52.605Z,95.20
2018-05-09T19:48:20.520Z,95.20
2018-05-09T19:50:50.011Z,95.90
2018-05-09T19:53:17.887Z,95.90
2018-05-09T19:55:46.609Z,97.40
2018-05-09T19:58:15.252Z,97.50
2018-05-09T20:03:26.109Z,98.00
2018-05-09T20:05:54.691Z,98.20
2018-05-09T20:08:22.589Z,98.20
2018-05-09T20:10:51.280Z,98.90
2018-05-09T20:13:19.114Z,98.90
2018-05-09T20:15:47.400Z,99.30
2018-05-09T20:18:15.230Z,99.30
2018-05-09T20:20:43.057Z,99.50
2018-05-09T20:23:11.667Z,99.60
2018-05-09T20:25:39.544Z,99.60
2018-05-09T20:28:07.882Z,99.90
2018-05-09T20:30:41.422Z,99.90
2018-05-09T20:33:09.259Z,99.90
2018-05-09T20:35:37.901Z,99.90
2018-05-09T20:38:05.743Z,99.90
2018-05-09T20:40:33.555Z,99.90
2018-05-09T20:43:01.377Z,99.90
2018-05-09T20:45:29.451Z,99.90
2018-05-09T20:47:57.370Z,99.90
2018-05-09T20:50:25.209Z,99.90
2018-05-09T20:52:53.038Z,99.90
2018-05-09T20:55:26.823Z,99.90
2018-05-09T20:57:55.988Z,99.90
2018-05-09T21:00:23.955Z,99.90
2018-05-09T21:02:51.856Z,99.90
2018-05-09T21:05:20.627Z,99.90
2018-05-09T21:07:58.146Z,99.90
2018-05-09T21:10:26.728Z,99.90
2018-05-09T21:12:55.324Z,99.90
2018-05-09T21:18:58.207Z,99.90
2018-05-09T21:21:26.152Z,99.90
2018-05-09T21:23:54.889Z,99.90
2018-05-09T21:26:23.070Z,99.90
2018-05-09T21:28:50.916Z,99.90
2018-05-09T21:31:19.613Z,99.90
2018-05-09T21:37:32.035Z,99.90
2018-05-09T21:40:00.619Z,99.90
2018-05-09T21:42:28.463Z,99.90
2018-05-09T21:44:57.100Z,99.90
2018-05-09T21:50:07.163Z,99.90
2018-05-09T21:52:34.979Z,99.90
2018-05-09T21:55:03.586Z,99.90
2018-05-09T21:57:32.167Z,99.90
2018-05-09T22:00:00.756Z,99.90
2018-05-09T22:02:29.703Z,99.90
2018-05-09T22:04:57.693Z,99.90
2018-05-09T22:07:25.847Z,99.90
2018-05-09T22:18:53.242Z,99.90
2018-05-09T22:21:21.827Z,99.90
2018-05-09T22:23:49.635Z,99.90
2018-05-09T22:26:19.514Z,99.90
2018-05-09T22:28:47.424Z,99.90
2018-05-09T22:31:15.348Z,99.90
2018-05-09T22:33:43.219Z,99.90
2018-05-09T22:36:11.068Z,99.90
2018-05-09T22:38:38.894Z,99.90
2018-05-09T22:41:06.740Z,99.90
2018-05-09T22:47:33.006Z,99.90
2018-05-09T22:50:01.648Z,99.90
2018-05-09T22:52:29.483Z,99.90
2018-05-09T22:54:58.149Z,99.90
2018-05-09T22:57:26.642Z,99.90
2018-05-09T22:59:55.235Z,99.90
2018-05-09T23:02:23.826Z,99.90
2018-05-09T23:04:51.851Z,99.90
2018-05-09T23:07:20.375Z,99.90
2018-05-09T23:09:49.456Z,99.90
2018-05-09T23:12:17.291Z,99.90
2018-05-09T23:14:45.102Z,99.90
2018-05-09T23:17:13.711Z,99.90
2018-05-09T23:19:41.520Z,99.90
2018-05-09T23:22:09.334Z,99.90
2018-05-09T23:24:37.151Z,99.90
2018-05-09T23:27:05.736Z,99.90
2018-05-09T23:29:48.687Z,99.90
2018-05-09T23:32:16.567Z,99.90
2018-05-09T23:34:44.499Z,99.90
2018-05-09T23:37:13.112Z,99.90
2018-05-09T23:39:41.006Z,99.90
2018-05-09T23:42:08.815Z,99.90
2018-05-09T23:44:37.413Z,99.90
2018-05-09T23:47:05.995Z,99.90
2018-05-09T23:49:34.867Z,99.90
2018-05-09T23:52:02.810Z,99.90
2018-05-09T23:54:30.582Z,99.90
2018-05-09T23:56:58.406Z,99.90
2018-05-09T23:59:26.237Z,99.90
